Time;durP1;ratioP1;P1;durP2;ratioP2;P2;SDS_P1;SDS_P2;PMS_P1;PMS_P2;Temp;Humidity;BMP_temperature;BMP_pressure;BME280_temperature;BME280_humidity;BME280_pressure;Samples;Min_cycle;Max_cycle;Signal;HPM_P1;HPM_P2
2023/06/14 00:00:48;;;;;;;34.08;26.48;;;;;;;16.27;100.00;95739.13;4961102;28;20504;-87
2023/06/14 00:03:17;;;;;;;36.95;26.85;;;;;;;16.28;100.00;95738.13;4962468;28;20448;-86
2023/06/14 00:05:43;;;;;;;35.45;26.90;;;;;;;16.30;100.00;95744.81;4977289;28;20029;-83
2023/06/14 00:08:09;;;;;;;31.10;26.13;;;;;;;16.21;100.00;95727.59;4960814;28;20416;-85
2023/06/14 00:10:35;;;;;;;37.55;27.92;;;;;;;16.27;100.00;95724.25;4962134;28;20109;-84
2023/06/14 00:13:04;;;;;;;41.20;29.58;;;;;;;16.33;100.00;95731.34;4960664;28;20185;-86
2023/06/14 00:15:31;;;;;;;36.65;27.63;;;;;;;16.37;100.00;95736.22;4962299;28;20030;-86
2023/06/14 00:18:00;;;;;;;50.85;30.10;;;;;;;16.30;100.00;95742.19;4970150;28;20585;-87
2023/06/14 00:20:26;;;;;;;;;;;;;;;16.27;100.00;95739.94;4967236;28;20037;-86
2023/06/14 00:22:51;;;;;;;36.78;25.10;;;;;;;16.30;100.00;95752.66;4969100;28;19914;-86
2023/06/14 00:25:17;;;;;;;39.25;24.90;;;;;;;16.25;100.00;95744.53;4968986;28;20113;-86
2023/06/14 00:27:42;;;;;;;46.03;28.90;;;;;;;16.28;100.00;95746.78;4962380;28;20058;-86
2023/06/14 00:30:08;;;;;;;46.80;30.67;;;;;;;16.31;100.00;95745.63;4955656;28;20061;-88
2023/06/14 00:32:34;;;;;;;53.33;32.50;;;;;;;16.24;100.00;95749.97;4983292;28;20053;-88
2023/06/14 00:34:59;;;;;;;43.60;27.38;;;;;;;16.21;100.00;95742.50;4980326;28;20022;-88
2023/06/14 00:37:25;;;;;;;56.15;31.65;;;;;;;16.10;100.00;95742.97;4982585;28;20046;-86
2023/06/14 00:39:50;;;;;;;40.05;24.45;;;;;;;16.12;100.00;95754.84;4958873;28;20046;-87
2023/06/14 00:42:26;;;;;;;39.97;25.65;;;;;;;16.23;100.00;95748.34;4961990;28;20485;-86
2023/06/14 00:44:51;;;;;;;39.70;25.40;;;;;;;16.22;100.00;95747.53;4963157;28;20037;-87
2023/06/14 00:47:17;;;;;;;39.45;25.65;;;;;;;16.31;100.00;95754.25;4970689;28;20022;-88
2023/06/14 00:49:42;;;;;;;36.38;26.08;;;;;;;16.30;100.00;95750.03;4966017;28;20034;-89
2023/06/14 00:52:12;;;;;;;55.00;29.92;;;;;;;16.18;100.00;95741.03;4963869;28;20436;-84
2023/06/14 00:54:37;;;;;;;37.42;25.65;;;;;;;16.26;100.00;95746.16;4976687;28;20049;-89
2023/06/14 00:57:03;;;;;;;50.67;29.63;;;;;;;16.12;100.00;95735.75;4976556;28;20508;-87
2023/06/14 00:59:28;;;;;;;48.10;28.83;;;;;;;16.15;100.00;95744.03;4973866;28;20034;-88
2023/06/14 01:01:54;;;;;;;45.10;28.65;;;;;;;16.22;100.00;95749.31;4978590;28;20055;-87
2023/06/14 01:04:19;;;;;;;50.05;28.63;;;;;;;16.26;100.00;95753.19;4969815;28;20033;-86
2023/06/14 01:07:09;;;;;;;50.55;31.17;;;;;;;16.14;100.00;95744.22;4982263;28;20468;-88
2023/06/14 01:10:03;;;;;;;49.75;30.77;;;;;;;16.20;100.00;95756.56;4974818;28;20022;-94
2023/06/14 01:12:45;;;;;;;47.53;29.45;;;;;;;16.29;100.00;95753.63;4957340;28;20035;-91
2023/06/14 01:15:12;;;;;;;64.15;35.35;;;;;;;16.17;100.00;95747.28;4978586;28;20411;-91
2023/06/14 01:17:41;;;;;;;47.95;29.83;;;;;;;16.22;100.00;95744.09;4983093;28;20117;-91
2023/06/14 01:20:10;;;;;;;55.78;31.38;;;;;;;16.25;100.00;95748.94;4984847;28;20042;-91
2023/06/14 01:22:36;;;;;;;49.47;31.73;;;;;;;16.22;100.00;95744.91;4983259;28;20150;-90
2023/06/14 01:25:01;;;;;;;53.90;32.67;;;;;;;16.24;100.00;95747.34;4984601;28;20502;-96
2023/06/14 01:27:29;;;;;;;53.90;32.08;;;;;;;16.22;100.00;95746.72;4983606;28;20113;-92
2023/06/14 01:29:59;;;;;;;53.30;31.45;;;;;;;16.32;100.00;95753.25;4959493;28;20062;-91
2023/06/14 01:32:26;;;;;;;51.05;31.20;;;;;;;16.27;100.00;95745.19;4987171;28;20041;-90
2023/06/14 01:34:52;;;;;;;49.92;31.13;;;;;;;16.28;100.00;95751.19;4984280;28;20088;-91
2023/06/14 01:37:18;;;;;;;44.40;30.60;;;;;;;16.33;100.00;95749.66;4987975;28;20038;-91
2023/06/14 01:39:44;;;;;;;50.97;31.98;;;;;;;16.29;100.00;95737.94;4986594;28;20104;-92
2023/06/14 01:42:11;;;;;;;48.22;32.08;;;;;;;16.30;100.00;95741.38;4971697;28;20525;-92
2023/06/14 01:44:37;;;;;;;55.58;32.97;;;;;;;16.24;100.00;95729.88;4973636;28;20092;-92
2023/06/14 01:47:03;;;;;;;57.80;34.63;;;;;;;16.37;100.00;95733.59;4980935;28;20511;-91
2023/06/14 01:49:28;;;;;;;54.90;34.67;;;;;;;16.30;100.00;95731.72;4964415;28;20030;-92
2023/06/14 01:51:53;;;;;;;53.30;34.70;;;;;;;16.37;100.00;95741.44;4987423;28;20120;-91
2023/06/14 01:54:21;;;;;;;61.22;37.03;;;;;;;16.37;100.00;95736.22;4994306;28;20065;-93
2023/06/14 01:56:47;;;;;;;59.97;38.60;;;;;;;16.39;100.00;95736.81;4983393;28;20121;-93
2023/06/14 01:59:12;;;;;;;62.40;38.00;;;;;;;16.43;100.00;95735.47;4984785;28;20098;-92
2023/06/14 02:01:38;;;;;;;65.93;39.88;;;;;;;16.44;100.00;95731.88;4997619;28;20161;-92
2023/06/14 02:04:03;;;;;;;65.85;38.30;;;;;;;16.41;100.00;95737.47;4987936;28;20475;-93
2023/06/14 02:06:29;;;;;;;60.17;37.20;;;;;;;16.42;100.00;95737.25;4984117;28;20058;-92
2023/06/14 02:08:54;;;;;;;55.88;35.72;;;;;;;16.43;100.00;95735.47;4987357;28;20030;-91
2023/06/14 02:11:19;;;;;;;61.75;33.58;;;;;;;16.31;100.00;95735.94;4987584;28;20085;-93
2023/06/14 02:13:45;;;;;;;56.75;32.28;;;;;;;16.27;100.00;95739.94;4986660;28;20050;-93
2023/06/14 02:16:11;;;;;;;55.30;33.13;;;;;;;16.29;100.00;95745.78;4989203;28;20154;-96
2023/06/14 02:18:36;;;;;;;54.38;32.10;;;;;;;16.29;100.00;95758.06;4986972;28;20058;-93
2023/06/14 02:21:02;;;;;;;62.80;35.20;;;;;;;16.32;100.00;95749.84;4984689;28;20031;-95
2023/06/14 02:23:27;;;;;;;58.97;33.33;;;;;;;16.38;100.00;95756.94;4982934;28;20027;-94
2023/06/14 02:25:53;;;;;;;62.50;34.72;;;;;;;16.37;100.00;95757.13;4966340;28;20026;-91
2023/06/14 02:28:19;;;;;;;54.92;31.95;;;;;;;16.41;100.00;95759.16;4961314;28;20045;-89
2023/06/14 02:30:44;;;;;;;60.17;32.08;;;;;;;16.37;100.00;95759.75;4967575;28;20057;-91
2023/06/14 02:33:12;;;;;;;75.65;36.95;;;;;;;16.25;100.00;95746.34;4992344;28;20080;-91
2023/06/14 02:35:38;;;;;;;69.67;35.17;;;;;;;16.29;100.00;95764.09;4969691;28;20651;-91
2023/06/14 02:38:04;;;;;;;50.40;31.00;;;;;;;16.37;100.00;95765.78;4965066;28;20031;-90
2023/06/14 02:40:29;;;;;;;49.38;29.60;;;;;;;16.33;100.00;95764.53;4967538;28;20109;-92
2023/06/14 02:42:55;;;;;;;44.83;28.42;;;;;;;16.40;100.00;95780.28;4968840;28;20034;-89
2023/06/14 02:45:21;;;;;;;50.88;28.70;;;;;;;16.34;100.00;95771.41;4956643;28;20492;-92
2023/06/14 02:47:47;;;;;;;52.83;29.05;;;;;;;16.27;100.00;95771.31;4990544;28;20028;-91
2023/06/14 02:50:12;;;;;;;54.97;31.38;;;;;;;16.32;100.00;95773.38;4981622;28;20042;-93
2023/06/14 02:52:38;;;;;;;74.00;36.40;;;;;;;16.20;100.00;95764.41;4966036;28;20030;-92
2023/06/14 02:55:04;;;;;;;56.28;32.90;;;;;;;16.32;100.00;95783.81;4964741;28;20070;-90
2023/06/14 02:57:30;;;;;;;50.13;30.35;;;;;;;16.29;100.00;95776.34;4957424;28;20038;-89
2023/06/14 02:59:55;;;;;;;64.60;36.35;;;;;;;16.27;100.00;95773.94;4986442;28;20930;-89
2023/06/14 03:02:20;;;;;;;52.80;31.75;;;;;;;16.37;100.00;95780.66;4984805;28;20487;-88
2023/06/14 03:04:46;;;;;;;55.20;30.67;;;;;;;16.41;100.00;95790.53;4973162;28;20086;-88
2023/06/14 03:07:12;;;;;;;59.33;34.08;;;;;;;16.34;100.00;95790.47;4980449;28;20424;-88
2023/06/14 03:09:38;;;;;;;51.97;31.35;;;;;;;16.39;100.00;95803.00;4981285;28;20069;-88
2023/06/14 03:12:06;;;;;;;59.03;32.83;;;;;;;16.33;100.00;95804.56;4968298;28;20035;-87
2023/06/14 03:14:32;;;;;;;59.50;32.53;;;;;;;16.35;100.00;95799.94;4959066;28;20483;-88
2023/06/14 03:16:58;;;;;;;59.70;32.63;;;;;;;16.31;100.00;95801.31;4964234;28;20023;-87
2023/06/14 03:19:25;;;;;;;63.45;34.20;;;;;;;16.40;100.00;95806.44;4983825;28;20030;-87
2023/06/14 03:21:51;;;;;;;50.80;32.00;;;;;;;16.40;100.00;95795.97;4984338;28;20053;-88
2023/06/14 03:24:17;;;;;;;54.75;33.80;;;;;;;16.33;100.00;95781.03;4961896;28;20019;-86
2023/06/14 03:26:42;;;;;;;71.72;36.95;;;;;;;16.40;100.00;95802.03;4955867;28;20030;-87
2023/06/14 03:29:08;;;;;;;55.03;34.25;;;;;;;16.43;100.00;95801.66;4965282;28;20396;-87
2023/06/14 03:31:34;;;;;;;62.05;35.15;;;;;;;16.44;100.00;95802.47;4965524;28;20589;-85
2023/06/14 03:34:00;;;;;;;67.78;36.30;;;;;;;16.45;100.00;95804.88;4983009;28;20080;-86
2023/06/14 03:36:27;;;;;;;64.43;36.00;;;;;;;16.46;100.00;95801.28;4981905;28;20057;-87
2023/06/14 03:38:53;;;;;;;57.85;31.73;;;;;;;16.43;100.00;95806.06;4969899;28;20026;-87
2023/06/14 03:41:18;;;;;;;71.22;34.97;;;;;;;16.37;100.00;95812.03;4956426;28;20076;-91
2023/06/14 03:43:44;;;;;;;54.20;32.58;;;;;;;16.38;100.00;95811.03;4971735;28;20022;-89
2023/06/14 03:46:09;;;;;;;81.13;37.92;;;;;;;16.31;100.00;95806.53;4979418;28;20109;-88
2023/06/14 03:48:35;;;;;;;61.30;31.92;;;;;;;16.38;100.00;95806.59;4982420;28;20435;-90
2023/06/14 03:51:00;;;;;;;54.20;31.58;;;;;;;16.38;100.00;95816.25;4980636;28;20027;-89
2023/06/14 03:53:28;;;;;;;54.28;32.47;;;;;;;16.36;100.00;95816.47;4980630;28;20109;-89
2023/06/14 03:55:53;;;;;;;57.75;31.85;;;;;;;16.32;100.00;95809.97;4966570;28;20022;-88
2023/06/14 03:58:19;;;;;;;44.83;28.85;;;;;;;16.41;100.00;95821.16;4977726;28;20026;-88
2023/06/14 04:00:45;;;;;;;55.08;28.63;;;;;;;16.37;100.00;95819.88;4978486;28;20343;-87
2023/06/14 04:03:13;;;;;;;48.05;28.30;;;;;;;16.35;100.00;95818.25;4958898;28;20034;-88
2023/06/14 04:05:41;;;;;;;41.30;26.27;;;;;;;16.42;100.00;95818.31;4981361;28;20496;-87
2023/06/14 04:08:08;;;;;;;54.20;29.75;;;;;;;16.43;100.00;95827.00;4979492;28;20030;-91
2023/06/14 04:10:34;;;;;;;35.00;24.42;;;;;;;16.45;100.00;95825.00;4977347;28;20105;-84
2023/06/14 04:12:59;;;;;;;30.10;21.83;;;;;;;16.48;100.00;95824.63;4984867;28;20452;-84
2023/06/14 04:15:27;;;;;;;27.52;21.23;;;;;;;16.43;100.00;95824.38;4959949;28;20026;-86
2023/06/14 04:17:57;;;;;;;39.55;24.08;;;;;;;16.39;100.00;95817.88;4960492;28;20149;-86
2023/06/14 04:20:22;;;;;;;;;;;;;;;16.53;100.00;95830.13;4964350;28;20045;-84
2023/06/14 04:22:49;;;;;;;28.88;20.05;;;;;;;16.56;100.00;95829.78;4968583;28;20655;-88
2023/06/14 04:25:14;;;;;;;18.50;16.52;;;;;;;16.64;100.00;95820.00;4952651;28;20026;-87
2023/06/14 04:27:43;;;;;;;16.98;15.25;;;;;;;16.63;100.00;95818.38;4961339;28;20456;-88
2023/06/14 04:30:09;;;;;;;16.70;15.10;;;;;;;16.64;100.00;95824.41;4972439;28;20050;-87
2023/06/14 04:32:38;;;;;;;18.10;15.50;;;;;;;16.54;100.00;95814.22;4978298;28;20034;-87
2023/06/14 04:35:08;;;;;;;15.80;14.30;;;;;;;16.64;100.00;95821.78;4971652;28;20026;-85
2023/06/14 04:37:34;;;;;;;16.60;15.00;;;;;;;16.84;100.00;95820.19;4954683;28;20074;-84
2023/06/14 04:40:00;;;;;;;15.65;13.50;;;;;;;16.81;100.00;95818.75;4972915;28;20042;-86
2023/06/14 04:42:31;;;;;;;15.32;13.85;;;;;;;16.92;100.00;95822.66;4972465;28;20084;-83
2023/06/14 04:44:56;;;;;;;15.55;14.13;;;;;;;16.93;100.00;95805.16;4961210;28;20912;-82
2023/06/14 04:47:24;;;;;;;17.65;15.48;;;;;;;16.90;100.00;95806.34;4961570;28;20027;-83
2023/06/14 04:49:53;;;;;;;16.23;12.73;;;;;;;16.85;100.00;95793.03;4959440;28;20030;-82
2023/06/14 04:52:20;;;;;;;15.80;14.13;;;;;;;16.62;100.00;95777.53;4955577;28;20034;-84
2023/06/14 04:54:46;;;;;;;14.13;12.80;;;;;;;16.68;100.00;95794.28;4977660;28;20030;-85
2023/06/14 04:57:16;;;;;;;15.85;14.45;;;;;;;16.64;100.00;95796.44;4970316;28;20036;-84
2023/06/14 04:59:43;;;;;;;15.30;13.68;;;;;;;16.68;100.00;95807.34;4980467;28;20026;-83
2023/06/14 05:02:10;;;;;;;15.57;13.82;;;;;;;16.67;100.00;95798.69;4972534;28;20510;-85
2023/06/14 05:04:39;;;;;;;14.18;12.70;;;;;;;16.76;100.00;95812.47;4953233;28;20584;-82
2023/06/14 05:07:09;;;;;;;12.00;10.95;;;;;;;16.89;100.00;95817.81;4948672;28;20023;-83
2023/06/14 05:09:35;;;;;;;12.50;11.57;;;;;;;16.97;100.00;95811.63;4961056;28;20543;-90
2023/06/14 05:12:01;;;;;;;13.00;12.00;;;;;;;16.85;100.00;95790.41;4957034;28;20133;-94
2023/06/14 05:14:26;;;;;;;13.63;12.45;;;;;;;16.78;100.00;95784.31;4964377;28;20110;-81
2023/06/14 05:16:52;;;;;;;11.43;10.32;;;;;;;16.92;100.00;95786.03;4952370;28;21056;-83
2023/06/14 05:19:18;;;;;;;12.73;11.63;;;;;;;16.91;100.00;95765.28;4967880;28;20034;-82
2023/06/14 05:21:43;;;;;;;13.70;12.38;;;;;;;17.10;100.00;95786.38;4978971;28;20042;-83
2023/06/14 05:24:09;;;;;;;13.32;12.07;;;;;;;17.20;100.00;95773.78;4960786;28;20088;-83
2023/06/14 05:26:35;;;;;;;13.77;12.48;;;;;;;17.21;100.00;95749.19;4978876;28;20022;-81
2023/06/14 05:29:01;;;;;;;12.30;11.20;;;;;;;17.23;100.00;95741.16;4958572;28;20034;-86
2023/06/14 05:31:27;;;;;;;11.77;10.88;;;;;;;17.46;100.00;95740.88;4951726;28;20079;-87
2023/06/14 05:33:53;;;;;;;13.63;12.40;;;;;;;17.34;100.00;95709.19;4963322;28;20027;-90
2023/06/14 05:36:22;;;;;;;14.68;12.82;;;;;;;17.53;100.00;95679.66;4977572;28;20118;-87
2023/06/14 05:38:47;;;;;;;14.75;13.45;;;;;;;17.58;100.00;95621.47;4970233;28;20101;-85
2023/06/14 05:41:13;;;;;;;14.40;12.95;;;;;;;18.01;100.00;95578.22;4958016;28;20088;-83
2023/06/14 05:43:39;;;;;;;17.48;15.02;;;;;;;17.90;100.00;95497.56;4951300;28;20021;-80
2023/06/14 05:46:04;;;;;;;17.98;15.10;;;;;;;17.72;100.00;95482.41;4975630;28;20038;-84
2023/06/14 05:48:33;;;;;;;16.35;14.85;;;;;;;18.07;100.00;95497.94;4955346;28;20026;-84
2023/06/14 05:50:58;;;;;;;15.90;14.40;;;;;;;18.18;100.00;95440.44;4962219;28;20038;-82
2023/06/14 05:53:24;;;;;;;16.27;14.63;;;;;;;18.25;100.00;95367.00;4962834;28;20129;-85
2023/06/14 05:55:51;;;;;;;17.95;14.85;;;;;;;19.59;100.00;95208.09;4979320;28;20022;-82
2023/06/14 05:58:17;;;;;;;13.88;12.52;;;;;;;23.65;100.00;94735.75;4973534;28;20077;-84
2023/06/14 06:00:42;;;;;;;12.52;11.38;;;;;;;21.26;100.00;94619.50;4968982;28;20034;-83
2023/06/14 06:03:09;;;;;;;11.43;10.38;;;;;;;20.06;100.00;94663.94;4975676;28;20034;-83
2023/06/14 06:05:34;;;;;;;11.60;10.45;;;;;;;20.78;100.00;94670.16;4962388;28;20034;-83
2023/06/14 06:08:00;;;;;;;10.95;9.90;;;;;;;21.42;100.00;94676.63;4956735;28;20487;-83
2023/06/14 06:10:25;;;;;;;11.52;10.52;;;;;;;22.94;100.00;94592.59;4967031;28;20039;-82
2023/06/14 06:12:52;;;;;;;9.65;8.82;;;;;;;25.58;100.00;94574.00;4978778;28;20088;-83
2023/06/14 06:15:18;;;;;;;8.25;7.68;;;;;;;29.84;73.97;94562.06;4977664;28;20121;-85
2023/06/14 06:17:44;;;;;;;6.97;6.47;;;;;;;31.47;64.40;94571.16;4973083;28;20041;-86
2023/06/14 06:20:11;;;;;;;6.88;6.38;;;;;;;30.85;64.53;94568.50;4979499;28;20047;-87
2023/06/14 06:22:37;;;;;;;7.50;6.90;;;;;;;31.83;58.75;94561.81;4980681;28;20049;-86
2023/06/14 06:25:03;;;;;;;8.80;8.02;;;;;;;26.40;95.22;94575.06;4957879;28;20814;-90
2023/06/14 06:27:29;;;;;;;8.68;8.07;;;;;;;23.46;100.00;94571.44;4964360;28;20030;-91
2023/06/14 06:29:54;;;;;;;9.70;8.80;;;;;;;22.62;100.00;94607.69;4971115;28;20548;-91
2023/06/14 06:32:20;;;;;;;9.85;9.05;;;;;;;21.58;100.00;94624.91;4991895;28;20088;-88
2023/06/14 06:34:46;;;;;;;9.27;8.57;;;;;;;20.79;100.00;94627.81;4977858;28;20376;-93
2023/06/14 06:37:11;;;;;;;11.80;10.40;;;;;;;21.18;100.00;94647.06;4978752;28;20468;-92
2023/06/14 06:39:36;;;;;;;10.85;9.55;;;;;;;21.23;100.00;94648.97;4964013;28;20030;-90
2023/06/14 06:42:02;;;;;;;10.02;9.25;;;;;;;21.29;100.00;94640.06;4966355;28;20030;-90
2023/06/14 06:44:27;;;;;;;10.75;9.85;;;;;;;21.10;100.00;94644.84;4960478;28;20409;-91
2023/06/14 06:46:53;;;;;;;10.50;9.70;;;;;;;21.07;100.00;94652.41;4967428;28;20630;-90
2023/06/14 06:49:18;;;;;;;11.23;10.38;;;;;;;20.91;100.00;94654.81;4966678;28;20141;-91
2023/06/14 06:51:59;;;;;;;10.25;9.55;;;;;;;20.95;100.00;94669.13;4978344;28;20512;-91
2023/06/14 06:54:24;;;;;;;10.45;9.65;;;;;;;20.98;100.00;94659.94;4962394;28;20031;-90
2023/06/14 06:56:50;;;;;;;9.73;8.82;;;;;;;23.11;100.00;94624.13;4977526;28;20050;-90
2023/06/14 06:59:16;;;;;;;8.40;7.72;;;;;;;23.94;100.00;94578.16;4986343;28;20034;-81
2023/06/14 07:01:42;;;;;;;7.50;7.00;;;;;;;22.73;100.00;94595.38;4978176;28;20034;-87
2023/06/14 07:04:07;;;;;;;8.32;7.78;;;;;;;22.71;100.00;94592.19;4967605;28;20479;-85
2023/06/14 07:06:33;;;;;;;8.70;8.10;;;;;;;22.49;100.00;94601.00;4968290;28;20481;-85
2023/06/14 07:09:01;;;;;;;8.45;7.85;;;;;;;22.33;100.00;94599.28;4992164;28;20031;-87
2023/06/14 07:11:27;;;;;;;8.43;7.63;;;;;;;22.22;100.00;94589.66;4988584;28;20124;-84
2023/06/14 07:13:52;;;;;;;8.40;7.68;;;;;;;22.42;100.00;94608.31;4963351;28;20476;-85
2023/06/14 07:16:18;;;;;;;9.15;8.55;;;;;;;22.67;100.00;94597.16;4961627;28;20019;-82
2023/06/14 07:18:43;;;;;;;8.93;8.20;;;;;;;22.47;100.00;94605.75;4962824;28;20109;-83
2023/06/14 07:21:09;;;;;;;9.30;8.60;;;;;;;22.38;100.00;94603.81;4961446;28;20508;-84
2023/06/14 07:23:35;;;;;;;8.68;8.10;;;;;;;22.67;100.00;94602.44;4962673;28;20030;-82
2023/06/14 07:26:00;;;;;;;8.10;7.50;;;;;;;22.51;100.00;94593.59;4995072;28;20129;-82
2023/06/14 07:28:26;;;;;;;8.27;7.68;;;;;;;22.98;100.00;94603.44;4970583;28;20084;-81
2023/06/14 07:30:51;;;;;;;7.72;7.03;;;;;;;23.21;100.00;94596.97;4976777;28;20054;-81
2023/06/14 07:33:17;;;;;;;8.00;7.30;;;;;;;23.80;100.00;94589.50;4976546;28;20037;-80
2023/06/14 07:35:42;;;;;;;8.15;7.32;;;;;;;23.90;100.00;94594.81;4962113;28;20042;-81
2023/06/14 07:38:08;;;;;;;7.95;7.15;;;;;;;24.13;100.00;94586.41;4964417;28;20061;-83
2023/06/14 07:40:33;;;;;;;8.13;7.63;;;;;;;24.92;100.00;94591.16;4980186;28;20030;-83
2023/06/14 07:42:59;;;;;;;7.40;6.90;;;;;;;24.52;100.00;94587.50;4975634;28;20417;-84
2023/06/14 07:45:24;;;;;;;7.97;7.47;;;;;;;24.07;100.00;94592.75;4962784;28;20031;-83
2023/06/14 07:47:51;;;;;;;7.78;7.28;;;;;;;23.64;100.00;94588.69;4972227;28;20545;-82
2023/06/14 07:50:16;;;;;;;7.40;6.90;;;;;;;23.02;100.00;94580.75;4960922;28;20035;-80
2023/06/14 07:52:42;;;;;;;7.43;6.82;;;;;;;23.26;100.00;94594.31;4961904;28;20042;-82
2023/06/14 07:55:08;;;;;;;7.20;6.70;;;;;;;23.34;100.00;94589.31;4961220;28;20880;-83
2023/06/14 07:57:33;;;;;;;7.85;7.35;;;;;;;23.12;100.00;94594.00;4961934;28;20080;-84
2023/06/14 07:59:58;;;;;;;8.65;7.80;;;;;;;23.04;100.00;94603.22;4989153;28;20381;-84
2023/06/14 08:02:24;;;;;;;9.43;8.68;;;;;;;22.80;100.00;94599.38;4983896;28;20472;-84
2023/06/14 08:04:49;;;;;;;9.20;8.25;;;;;;;22.65;100.00;94609.81;4975135;28;20101;-85
2023/06/14 08:07:15;;;;;;;9.90;9.00;;;;;;;22.50;100.00;94610.50;4976891;28;20038;-83
2023/06/14 08:09:41;;;;;;;9.15;8.18;;;;;;;22.24;100.00;94611.34;4971226;28;20042;-81
2023/06/14 08:12:10;;;;;;;8.38;7.88;;;;;;;22.30;100.00;94617.47;4962769;28;20035;-84
2023/06/14 08:14:35;;;;;;;;;;;;;;;22.28;100.00;94630.13;4960403;28;20034;-84
2023/06/14 08:17:01;;;;;;;9.18;8.30;;;;;;;22.16;100.00;94632.91;4960411;28;19922;-83
2023/06/14 08:19:26;;;;;;;8.60;7.90;;;;;;;22.12;100.00;94631.03;4980151;28;20380;-84
2023/06/14 08:21:54;;;;;;;10.00;9.30;;;;;;;22.00;100.00;94631.16;4971380;28;20591;-85
2023/06/14 08:24:24;;;;;;;8.93;8.23;;;;;;;21.95;100.00;94642.47;4977003;28;20054;-86
2023/06/14 08:26:50;;;;;;;9.18;8.52;;;;;;;21.87;100.00;94634.16;4958816;28;20600;-87
2023/06/14 08:29:15;;;;;;;8.07;7.38;;;;;;;21.86;100.00;94636.03;4963944;28;20142;-84
2023/06/14 08:31:40;;;;;;;8.98;8.20;;;;;;;22.00;100.00;94652.25;4975371;28;20432;-84
2023/06/14 08:34:06;;;;;;;7.63;6.93;;;;;;;22.13;100.00;94643.16;4975079;28;20337;-81
2023/06/14 08:36:32;;;;;;;7.30;6.68;;;;;;;22.20;100.00;94633.19;4968122;28;20026;-84
2023/06/14 08:38:57;;;;;;;7.60;7.10;;;;;;;22.47;100.00;94634.78;4977693;28;20022;-84
2023/06/14 08:41:24;;;;;;;6.97;6.47;;;;;;;23.39;100.00;94626.38;4947171;28;20487;-84
2023/06/14 08:43:50;;;;;;;7.07;6.38;;;;;;;23.63;100.00;94625.97;4958440;28;20030;-85
2023/06/14 08:46:19;;;;;;;6.90;6.40;;;;;;;23.39;100.00;94626.38;4967884;28;20026;-86
2023/06/14 08:48:47;;;;;;;6.53;6.03;;;;;;;23.80;100.00;94623.91;4958835;28;20047;-84
2023/06/14 08:51:15;;;;;;;6.90;6.22;;;;;;;24.17;100.00;94621.09;4971767;28;20044;-86
2023/06/14 08:53:41;;;;;;;;;;;;;;;24.53;100.00;94612.91;4945162;28;20034;-83
2023/06/14 08:56:13;;;;;;;7.63;6.93;;;;;;;23.56;100.00;94608.50;4970084;28;19920;-80
2023/06/14 08:58:44;;;;;;;7.00;6.50;;;;;;;24.21;100.00;94601.78;4975077;28;20054;-86
2023/06/14 09:01:14;;;;;;;6.63;6.03;;;;;;;24.32;100.00;94613.97;4977590;28;20022;-80
2023/06/14 09:03:42;;;;;;;6.93;6.43;;;;;;;24.04;100.00;94612.59;4978955;28;20105;-80
2023/06/14 09:06:13;;;;;;;6.45;6.05;;;;;;;23.97;100.00;94611.25;4962149;28;20065;-83
2023/06/14 09:08:43;;;;;;;6.85;6.35;;;;;;;24.18;100.00;94606.81;4962404;28;20035;-79
2023/06/14 09:11:12;;;;;;;6.63;6.07;;;;;;;24.30;100.00;94605.50;4957962;28;20038;-82
2023/06/14 09:13:37;;;;;;;8.27;6.38;;;;;;;24.23;100.00;94606.81;4959843;28;20026;-86
2023/06/14 09:16:03;;;;;;;6.55;6.05;;;;;;;24.65;100.00;94594.91;4975634;28;20440;-84
2023/06/14 09:18:36;;;;;;;7.45;6.95;;;;;;;25.30;98.89;94609.06;4957748;28;20102;-81
2023/06/14 09:21:02;;;;;;;7.50;6.93;;;;;;;23.76;98.99;94606.97;4953279;28;20047;-78
2023/06/14 09:23:27;;;;;;;7.22;6.63;;;;;;;23.48;100.00;94598.41;4957301;28;20038;-79
2023/06/14 09:25:53;;;;;;;6.93;6.43;;;;;;;24.50;98.37;94599.38;4973602;28;20069;-83
2023/06/14 09:28:20;;;;;;;7.38;6.68;;;;;;;25.07;99.69;94599.88;4978434;28;20058;-83
2023/06/14 09:30:45;;;;;;;6.95;6.18;;;;;;;24.95;100.00;94590.63;4974347;28;20109;-82
2023/06/14 09:33:10;;;;;;;6.70;6.20;;;;;;;24.82;100.00;94599.16;4974028;28;20038;-83
2023/06/14 09:35:36;;;;;;;7.32;6.82;;;;;;;23.40;100.00;94591.00;4963402;28;20408;-82
2023/06/14 09:38:01;;;;;;;7.53;6.88;;;;;;;24.11;100.00;94585.88;4975426;28;20501;-82
2023/06/14 09:40:27;;;;;;;7.95;7.38;;;;;;;24.02;99.85;94587.41;4969403;28;20045;-83
2023/06/14 09:42:53;;;;;;;7.40;6.80;;;;;;;24.76;100.00;94587.72;4972871;28;20042;-84
2023/06/14 09:45:21;;;;;;;7.50;6.85;;;;;;;24.22;100.00;94584.84;4972205;28;20033;-84
2023/06/14 09:47:49;;;;;;;7.70;7.20;;;;;;;23.55;100.00;94572.53;4986330;28;20037;-84
2023/06/14 09:50:15;;;;;;;7.63;7.13;;;;;;;23.98;100.00;94581.88;4959731;28;20050;-83
2023/06/14 09:52:42;;;;;;;8.13;7.53;;;;;;;23.97;100.00;94577.66;4960942;28;20022;-81
2023/06/14 09:55:12;;;;;;;8.10;7.40;;;;;;;24.12;100.00;94584.81;4976248;28;20374;-79
2023/06/14 09:57:38;;;;;;;7.45;6.85;;;;;;;24.51;97.46;94574.50;4961792;28;20078;-82
2023/06/14 10:00:10;;;;;;;7.97;7.28;;;;;;;24.34;97.70;94580.06;4962444;28;20027;-80
2023/06/14 10:02:37;;;;;;;9.18;7.80;;;;;;;24.28;100.00;94570.53;4962698;28;20395;-81
2023/06/14 10:05:08;;;;;;;8.65;7.95;;;;;;;24.09;100.00;94570.25;4970154;28;20951;-80
2023/06/14 10:07:48;;;;;;;8.93;7.82;;;;;;;24.22;100.00;94568.16;4962765;28;20023;-82
2023/06/14 10:10:14;;;;;;;7.55;6.85;;;;;;;24.56;99.27;94559.38;4963119;28;20092;-84
2023/06/14 10:12:40;;;;;;;7.20;6.70;;;;;;;24.33;97.37;94554.66;4998053;28;20038;-86
2023/06/14 10:15:08;;;;;;;7.75;7.15;;;;;;;23.70;93.81;94563.81;4962647;28;20853;-80
2023/06/14 10:17:40;;;;;;;7.30;6.80;;;;;;;24.06;97.58;94556.72;4975840;28;20031;-83
2023/06/14 10:20:21;;;;;;;7.45;6.80;;;;;;;24.20;97.46;94555.19;4964542;28;20042;-81
2023/06/14 10:23:02;;;;;;;7.38;6.65;;;;;;;24.59;100.00;94550.13;4996142;28;20019;-86
2023/06/14 10:25:29;;;;;;;9.10;6.70;;;;;;;24.16;96.02;94545.38;4974838;28;20113;-82
2023/06/14 10:28:22;;;;;;;7.60;6.90;;;;;;;24.85;96.23;94553.56;4958524;28;20033;-82
2023/06/14 10:31:10;;;;;;;6.30;5.82;;;;;;;24.86;96.46;94553.28;4952764;28;20073;-84
2023/06/14 10:33:49;;;;;;;7.93;7.25;;;;;;;24.80;95.65;94549.03;4960120;28;20454;-82
2023/06/14 10:36:31;;;;;;;6.63;6.07;;;;;;;24.62;92.83;94547.75;4966372;28;20556;-81
2023/06/14 10:39:07;;;;;;;7.68;7.03;;;;;;;24.61;94.90;94543.50;4965906;28;20081;-79
2023/06/14 10:41:38;;;;;;;7.28;6.78;;;;;;;24.07;89.32;94551.19;4978764;28;20477;-82
2023/06/14 10:44:12;;;;;;;6.38;5.88;;;;;;;25.32;91.59;94545.97;4992009;28;20018;-82
2023/06/14 10:46:48;;;;;;;6.70;6.22;;;;;;;25.21;87.49;94540.97;4984065;28;20034;-81
2023/06/14 10:49:19;;;;;;;5.95;5.55;;;;;;;24.66;91.31;94546.13;4962057;28;20610;-82
2023/06/14 10:51:49;;;;;;;7.03;6.43;;;;;;;24.63;91.44;94538.72;4965546;28;20045;-82
2023/06/14 10:54:20;;;;;;;8.02;7.30;;;;;;;24.25;95.12;94533.19;4982106;28;20096;-82
2023/06/14 10:56:50;;;;;;;11.13;6.65;;;;;;;24.28;97.34;94533.47;4981262;28;20022;-81
2023/06/14 10:59:16;;;;;;;7.18;6.45;;;;;;;24.33;97.01;94530.03;4962189;28;20503;-84
2023/06/14 11:02:15;;;;;;;7.45;6.75;;;;;;;23.91;99.75;94532.91;4974056;28;20499;-83
2023/06/14 11:04:50;;;;;;;7.75;7.00;;;;;;;24.57;95.96;94531.84;4978550;28;20027;-80
2023/06/14 11:07:37;;;;;;;6.63;6.15;;;;;;;25.04;90.09;94528.06;4986533;28;20034;-84
2023/06/14 11:10:15;;;;;;;6.70;6.20;;;;;;;24.97;84.07;94514.28;4971337;28;20124;-79
2023/06/14 11:12:42;;;;;;;6.80;6.30;;;;;;;25.14;82.38;94517.41;4980867;28;20101;-84
2023/06/14 11:15:08;;;;;;;5.80;5.40;;;;;;;25.33;83.36;94499.81;4985980;28;20043;-83
2023/06/14 11:17:33;;;;;;;6.90;6.40;;;;;;;25.64;85.87;94508.41;4982255;28;20032;-82
2023/06/14 11:20:18;;;;;;;6.40;5.80;;;;;;;25.51;85.78;94514.34;4967556;28;20181;-89